createdAt,value
2023-05-23T00:00:28.851Z,23.60
2023-05-23T00:02:56.268Z,23.60
2023-05-23T00:05:24.142Z,23.50
2023-05-23T00:07:51.432Z,23.50
2023-05-23T00:10:20.952Z,23.40
2023-05-23T00:12:48.410Z,23.40
2023-05-23T00:15:18.006Z,23.40
2023-05-23T00:17:45.480Z,23.40
2023-05-23T00:20:16.181Z,23.40
2023-05-23T00:22:43.448Z,23.40
2023-05-23T00:25:15.091Z,23.30
2023-05-23T00:27:46.780Z,23.30
2023-05-23T00:30:14.118Z,23.30
2023-05-23T00:32:41.486Z,23.30
2023-05-23T00:35:09.180Z,23.20
2023-05-23T00:37:36.543Z,23.20
2023-05-23T00:40:06.365Z,23.20
2023-05-23T00:42:36.181Z,23.10
2023-05-23T00:45:03.687Z,23.10
2023-05-23T00:47:30.981Z,23.10
2023-05-23T00:49:58.524Z,23.10
2023-05-23T00:52:25.931Z,23.10
2023-05-23T00:54:55.795Z,23.10
2023-05-23T00:57:23.247Z,23.00
2023-05-23T00:59:53.141Z,23.00
2023-05-23T01:02:21.682Z,23.00
2023-05-23T01:04:56.972Z,23.00
2023-05-23T01:07:24.297Z,22.90
2023-05-23T01:09:54.171Z,22.90
2023-05-23T01:12:46.409Z,22.90
2023-05-23T01:15:17.579Z,22.80
2023-05-23T01:17:58.571Z,22.80
2023-05-23T01:20:56.472Z,22.80
2023-05-23T01:23:40.353Z,22.80
2023-05-23T01:26:29.592Z,22.70
2023-05-23T01:29:10.392Z,22.70
2023-05-23T01:31:44.229Z,22.70
2023-05-23T01:34:13.734Z,22.60
2023-05-23T01:36:44.235Z,22.60
2023-05-23T01:39:12.467Z,22.60
2023-05-23T01:41:39.825Z,22.60
2023-05-23T01:44:12.234Z,22.60
2023-05-23T01:46:40.639Z,22.60
2023-05-23T01:49:12.228Z,22.50
2023-05-23T01:51:42.447Z,22.50
2023-05-23T01:54:12.371Z,22.50
2023-05-23T01:56:41.351Z,22.50
2023-05-23T01:59:09.221Z,22.40
2023-05-23T02:01:37.752Z,22.40
2023-05-23T02:04:05.359Z,22.40
2023-05-23T02:06:34.859Z,22.40
2023-05-23T02:09:04.610Z,22.30
2023-05-23T02:11:38.828Z,22.30
2023-05-23T02:14:07.110Z,22.30
2023-05-23T02:16:36.683Z,22.20
2023-05-23T02:19:04.689Z,22.20
2023-05-23T02:21:34.289Z,22.20
2023-05-23T02:24:02.575Z,22.10
2023-05-23T02:26:32.760Z,22.10
2023-05-23T02:29:02.358Z,22.10
2023-05-23T02:31:29.963Z,22.00
2023-05-23T02:33:59.880Z,22.00
2023-05-23T02:36:29.382Z,22.00
2023-05-23T02:38:58.939Z,21.90
2023-05-23T02:41:28.452Z,22.00
2023-05-23T02:43:57.909Z,21.90
2023-05-23T02:46:26.036Z,21.90
2023-05-23T02:48:53.378Z,21.90
2023-05-23T02:51:26.298Z,21.90
2023-05-23T02:53:53.658Z,21.90
2023-05-23T02:56:22.372Z,21.80
2023-05-23T02:58:49.679Z,21.80
2023-05-23T03:01:19.947Z,21.80
2023-05-23T03:03:47.330Z,21.80
2023-05-23T03:06:17.127Z,21.80
2023-05-23T03:08:46.891Z,21.70
2023-05-23T03:11:14.285Z,21.70
2023-05-23T03:13:44.041Z,21.80
2023-05-23T03:16:13.726Z,21.70
2023-05-23T03:18:42.148Z,21.80
2023-05-23T03:21:09.678Z,21.70
2023-05-23T03:23:36.969Z,21.70
2023-05-23T03:26:06.537Z,21.70
2023-05-23T03:28:33.890Z,21.70
2023-05-23T03:31:01.262Z,21.70
2023-05-23T03:33:28.598Z,21.70
2023-05-23T03:35:57.600Z,21.70
2023-05-23T03:38:24.904Z,21.60
2023-05-23T03:40:54.538Z,21.70
2023-05-23T03:43:21.838Z,21.60
2023-05-23T03:45:49.274Z,21.60
2023-05-23T03:48:16.668Z,21.60
2023-05-23T03:50:44.096Z,21.60
2023-05-23T03:53:11.538Z,21.60
2023-05-23T03:55:39.936Z,21.60
2023-05-23T03:58:09.738Z,21.60
2023-05-23T04:00:39.509Z,21.60
2023-05-23T04:03:10.652Z,21.60
2023-05-23T04:05:40.853Z,21.60
2023-05-23T04:08:10.584Z,21.60
2023-05-23T04:10:37.841Z,21.60
2023-05-23T04:13:07.350Z,21.70
2023-05-23T04:15:35.374Z,21.60
2023-05-23T04:18:03.669Z,21.70
2023-05-23T04:20:33.462Z,21.70
2023-05-23T04:23:00.869Z,21.70
2023-05-23T04:25:28.133Z,21.70
2023-05-23T04:27:56.057Z,21.70
2023-05-23T04:30:25.678Z,21.70
2023-05-23T04:32:53.856Z,21.70
2023-05-23T04:35:23.539Z,21.80
2023-05-23T04:37:50.793Z,21.80
2023-05-23T04:40:18.066Z,21.80
2023-05-23T04:42:48.357Z,21.80
2023-05-23T04:45:15.965Z,21.80
2023-05-23T04:47:44.928Z,21.80
2023-05-23T04:50:12.399Z,21.90
2023-05-23T04:52:39.661Z,21.90
2023-05-23T04:55:08.651Z,21.90
2023-05-23T04:57:36.407Z,21.90
2023-05-23T05:00:10.410Z,21.90
2023-05-23T05:02:39.010Z,21.90
2023-05-23T05:05:07.258Z,21.90
2023-05-23T05:07:37.029Z,21.90
2023-05-23T05:10:04.673Z,21.90
2023-05-23T05:12:36.490Z,22.00
2023-05-23T05:15:04.430Z,22.00
2023-05-23T05:17:36.946Z,22.00
2023-05-23T05:20:08.615Z,22.00
2023-05-23T05:22:43.029Z,22.00
2023-05-23T05:25:13.340Z,22.00
2023-05-23T05:27:40.741Z,22.00
2023-05-23T05:30:11.894Z,22.00
2023-05-23T05:32:39.253Z,22.00
2023-05-23T05:35:08.137Z,22.10
2023-05-23T05:37:35.461Z,22.10
2023-05-23T05:40:06.794Z,22.10
2023-05-23T05:42:34.234Z,22.10
2023-05-23T05:45:01.881Z,22.10
2023-05-23T05:47:29.191Z,22.20
2023-05-23T05:49:58.973Z,22.20
2023-05-23T05:52:26.297Z,22.20
2023-05-23T05:54:53.627Z,22.20
2023-05-23T05:57:20.996Z,22.30
2023-05-23T05:59:48.341Z,22.30
2023-05-23T06:02:16.844Z,22.40
2023-05-23T06:04:44.187Z,22.40
2023-05-23T06:07:11.803Z,22.50
2023-05-23T06:09:41.320Z,22.50
2023-05-23T06:12:08.726Z,22.60
2023-05-23T06:14:36.004Z,22.70
2023-05-23T06:17:04.067Z,22.70
2023-05-23T06:19:31.445Z,22.70
2023-05-23T06:21:58.927Z,22.70
2023-05-23T06:24:26.210Z,22.80
2023-05-23T06:26:55.922Z,22.80
2023-05-23T06:29:23.204Z,22.80
2023-05-23T06:31:50.512Z,22.90
2023-05-23T06:34:22.622Z,22.90
2023-05-23T06:36:49.879Z,23.00
2023-05-23T06:39:19.421Z,23.00
2023-05-23T06:41:49.796Z,23.00
2023-05-23T06:44:22.026Z,23.00
2023-05-23T06:46:57.357Z,23.10
2023-05-23T06:49:25.887Z,23.10
2023-05-23T06:51:53.239Z,23.10
2023-05-23T06:54:20.567Z,23.10
2023-05-23T06:56:47.874Z,23.10
2023-05-23T06:59:15.300Z,23.20
2023-05-23T07:01:42.667Z,23.20
2023-05-23T07:04:10.061Z,23.20
2023-05-23T07:06:37.429Z,23.20
2023-05-23T07:09:04.876Z,23.20
2023-05-23T07:11:32.205Z,23.20
2023-05-23T07:13:59.635Z,23.20
2023-05-23T07:16:29.189Z,23.20
2023-05-23T07:18:56.560Z,23.20
2023-05-23T07:21:23.852Z,23.20
2023-05-23T07:23:53.490Z,23.20
2023-05-23T07:26:20.818Z,23.20
2023-05-23T07:28:48.165Z,23.30
2023-05-23T07:31:15.476Z,23.20
2023-05-23T07:33:42.796Z,23.20
2023-05-23T07:36:11.427Z,23.30
2023-05-23T07:38:38.703Z,23.30
2023-05-23T07:41:12.095Z,23.30
2023-05-23T07:43:40.240Z,23.30
2023-05-23T07:46:07.675Z,23.30
2023-05-23T07:48:35.088Z,23.30
2023-05-23T07:51:02.474Z,23.40
2023-05-23T07:53:29.780Z,23.40
2023-05-23T07:55:57.061Z,23.40
2023-05-23T07:58:24.355Z,23.50
2023-05-23T08:00:53.120Z,23.50
2023-05-23T08:03:26.308Z,23.50
2023-05-23T08:05:54.101Z,23.50
2023-05-23T08:08:21.808Z,23.50
2023-05-23T08:10:49.711Z,23.50
2023-05-23T08:13:18.731Z,23.60
2023-05-23T08:15:48.277Z,23.60
2023-05-23T08:18:25.802Z,23.70
2023-05-23T08:20:58.387Z,23.70
2023-05-23T08:23:27.025Z,23.70
2023-05-23T08:25:56.354Z,23.80
2023-05-23T08:28:25.024Z,23.80
2023-05-23T08:30:52.697Z,23.90
2023-05-23T08:33:20.429Z,23.90
2023-05-23T08:36:01.332Z,24.00
2023-05-23T08:38:28.737Z,24.00
2023-05-23T08:40:58.964Z,24.10
2023-05-23T08:43:28.774Z,24.10
2023-05-23T08:45:56.120Z,24.20
2023-05-23T08:48:28.578Z,24.20
2023-05-23T08:50:55.899Z,24.20
2023-05-23T08:53:25.924Z,24.30
2023-05-23T08:55:55.684Z,24.40
2023-05-23T08:58:24.868Z,24.40
2023-05-23T09:00:53.756Z,24.40
2023-05-23T09:03:24.981Z,24.50
2023-05-23T09:05:54.128Z,24.50
2023-05-23T09:08:27.495Z,24.60
2023-05-23T09:10:55.382Z,24.60
2023-05-23T09:13:22.698Z,24.70
2023-05-23T09:16:04.785Z,24.70
2023-05-23T09:18:42.824Z,24.80
2023-05-23T09:21:11.378Z,24.80
2023-05-23T09:23:43.637Z,24.90
2023-05-23T09:26:13.489Z,24.90
2023-05-23T09:28:43.296Z,25.00
2023-05-23T09:31:13.461Z,25.00
2023-05-23T09:33:49.500Z,25.10
2023-05-23T09:36:17.720Z,25.10
2023-05-23T09:38:49.876Z,25.20
2023-05-23T09:41:20.717Z,25.20
2023-05-23T09:43:55.044Z,25.30
2023-05-23T09:46:23.082Z,25.30
2023-05-23T09:48:56.210Z,25.40
2023-05-23T09:51:24.256Z,25.50
2023-05-23T09:53:53.978Z,25.60
2023-05-23T09:56:23.601Z,25.60
2023-05-23T09:58:51.564Z,25.70
2023-05-23T10:01:19.926Z,25.80
2023-05-23T10:03:57.358Z,25.90
2023-05-23T10:06:43.147Z,25.90
2023-05-23T10:09:15.395Z,26.00
2023-05-23T10:12:01.591Z,26.00
2023-05-23T10:14:35.333Z,26.10
2023-05-23T10:17:15.593Z,26.20
2023-05-23T10:19:43.563Z,26.20
2023-05-23T10:22:12.380Z,26.20
2023-05-23T10:24:42.836Z,26.30
2023-05-23T10:27:10.381Z,26.30
2023-05-23T10:29:38.178Z,26.30
2023-05-23T10:32:06.826Z,26.30
2023-05-23T10:34:45.996Z,26.30
2023-05-23T10:37:26.410Z,26.40
2023-05-23T10:40:09.974Z,26.40
2023-05-23T10:42:55.898Z,26.40
2023-05-23T10:45:24.596Z,26.50
2023-05-23T10:47:55.914Z,26.50
2023-05-23T10:50:37.432Z,26.60
2023-05-23T10:53:09.326Z,26.70
2023-05-23T10:55:38.846Z,26.70
2023-05-23T10:58:22.947Z,26.80
2023-05-23T11:00:54.879Z,26.90
2023-05-23T11:03:53.697Z,27.00
2023-05-23T11:06:33.616Z,27.00
2023-05-23T11:09:13.958Z,27.20
2023-05-23T11:11:59.165Z,27.20
2023-05-23T11:14:32.751Z,27.30
2023-05-23T11:17:29.824Z,27.40
2023-05-23T11:20:07.035Z,27.50
2023-05-23T11:22:36.170Z,27.60
2023-05-23T11:25:12.543Z,27.60
2023-05-23T11:27:41.930Z,27.70
2023-05-23T11:30:17.313Z,27.80
2023-05-23T11:32:57.201Z,27.80
2023-05-23T11:35:29.244Z,27.90
2023-05-23T11:37:59.625Z,27.90
2023-05-23T11:40:27.153Z,27.90
2023-05-23T11:42:55.213Z,28.00
2023-05-23T11:45:33.827Z,28.10
2023-05-23T11:48:16.540Z,28.10
2023-05-23T11:50:48.201Z,28.20
2023-05-23T11:53:19.022Z,28.30
2023-05-23T11:56:04.250Z,28.40
2023-05-23T11:58:36.972Z,28.40
2023-05-23T12:01:09.352Z,28.50
2023-05-23T12:03:51.252Z,28.50
2023-05-23T12:06:24.687Z,28.50
2023-05-23T12:08:52.733Z,28.50
2023-05-23T12:11:22.571Z,28.40
2023-05-23T12:13:52.492Z,28.20
2023-05-23T12:16:21.237Z,28.10
2023-05-23T12:18:48.798Z,27.90
2023-05-23T12:21:18.578Z,27.70
2023-05-23T12:23:48.841Z,27.50
2023-05-23T12:26:16.278Z,27.40
2023-05-23T12:28:45.582Z,27.30
2023-05-23T12:31:14.072Z,27.20
2023-05-23T12:33:45.941Z,27.00
2023-05-23T12:36:16.613Z,27.00
2023-05-23T12:38:45.820Z,27.00
2023-05-23T12:41:16.736Z,26.90
2023-05-23T12:43:54.262Z,26.90
2023-05-23T12:46:23.498Z,26.90
2023-05-23T12:48:51.538Z,26.90
2023-05-23T12:51:25.733Z,26.80
2023-05-23T12:53:59.116Z,26.70
2023-05-23T12:56:33.794Z,26.60
2023-05-23T13:01:44.939Z,26.40
2023-05-23T13:04:16.565Z,26.20
2023-05-23T13:06:44.970Z,26.10
2023-05-23T13:09:15.332Z,26.00
2023-05-23T13:11:55.593Z,25.90
2023-05-23T13:14:22.966Z,25.90
2023-05-23T13:16:50.537Z,25.80
2023-05-23T13:19:19.206Z,25.70
2023-05-23T13:21:49.905Z,25.60
2023-05-23T13:24:18.174Z,25.60
2023-05-23T13:26:50.342Z,25.50
2023-05-23T13:29:19.764Z,25.40
2023-05-23T13:31:48.435Z,25.40
2023-05-23T13:34:25.678Z,25.30
2023-05-23T13:36:56.353Z,25.30
2023-05-23T13:39:25.970Z,25.30
2023-05-23T13:45:12.354Z,25.10
2023-05-23T13:48:03.365Z,25.10
2023-05-23T13:50:33.323Z,25.00
2023-05-23T13:53:01.116Z,24.90
2023-05-23T13:55:29.430Z,24.90
2023-05-23T13:57:56.861Z,24.90
2023-05-23T14:00:36.619Z,24.90
2023-05-23T14:03:07.320Z,24.80
2023-05-23T14:05:39.318Z,24.80
2023-05-23T14:08:08.397Z,24.90
2023-05-23T14:10:48.646Z,24.90
2023-05-23T14:13:16.461Z,24.90
2023-05-23T14:15:44.165Z,25.00
2023-05-23T14:18:12.008Z,25.00
2023-05-23T14:20:42.954Z,25.00
2023-05-23T14:23:10.742Z,25.00
2023-05-23T14:25:38.189Z,25.10
2023-05-23T14:28:08.079Z,25.10
2023-05-23T14:30:35.581Z,25.10
2023-05-23T14:33:03.174Z,25.10
2023-05-23T14:35:30.867Z,25.20
2023-05-23T14:38:00.396Z,25.20
2023-05-23T14:40:27.805Z,25.20
2023-05-23T14:42:57.745Z,25.20
2023-05-23T14:45:25.490Z,25.20
2023-05-23T14:47:55.306Z,25.20
2023-05-23T14:50:23.014Z,25.10
2023-05-23T14:52:50.323Z,25.10
2023-05-23T14:55:17.834Z,25.00
2023-05-23T14:57:52.250Z,25.00
2023-05-23T15:00:22.229Z,24.90
2023-05-23T15:02:49.743Z,24.90
2023-05-23T15:05:17.833Z,24.80
2023-05-23T15:07:57.157Z,24.70
2023-05-23T15:10:34.454Z,24.70
2023-05-23T15:13:07.822Z,24.60
2023-05-23T15:15:37.819Z,24.60
2023-05-23T15:18:08.165Z,24.60
2023-05-23T15:20:37.842Z,24.50
2023-05-23T15:23:07.918Z,24.50
2023-05-23T15:25:48.800Z,24.50
2023-05-23T15:28:17.243Z,24.40
2023-05-23T15:30:45.241Z,24.50
2023-05-23T15:33:12.977Z,24.40
2023-05-23T15:35:43.369Z,24.40
2023-05-23T15:38:13.386Z,24.40
2023-05-23T15:40:42.334Z,24.40
2023-05-23T15:43:12.306Z,24.40
2023-05-23T15:45:39.739Z,24.40
2023-05-23T15:48:07.417Z,24.40
2023-05-23T15:50:36.956Z,24.30
2023-05-23T15:53:04.300Z,24.40
2023-05-23T15:55:31.701Z,24.30
2023-05-23T15:57:59.099Z,24.40
2023-05-23T16:00:28.666Z,24.30
2023-05-23T16:02:56.107Z,24.30
2023-05-23T16:05:23.705Z,24.30
2023-05-23T16:07:51.456Z,24.30
2023-05-23T16:10:19.903Z,24.30
2023-05-23T16:12:47.358Z,24.30
2023-05-23T16:15:14.662Z,24.30
2023-05-23T16:17:44.528Z,24.20
2023-05-23T16:20:12.228Z,24.30
2023-05-23T16:22:42.184Z,24.30
2023-05-23T16:25:11.144Z,24.20
2023-05-23T16:27:39.461Z,24.30
2023-05-23T16:30:11.501Z,24.30
2023-05-23T16:32:46.014Z,24.30
2023-05-23T16:35:16.463Z,24.30
2023-05-23T16:37:46.178Z,24.30
2023-05-23T16:40:17.191Z,24.30
2023-05-23T16:42:46.193Z,24.30
2023-05-23T16:45:15.989Z,24.30
2023-05-23T16:47:45.425Z,24.30
2023-05-23T16:50:15.066Z,24.30
2023-05-23T16:52:47.477Z,24.30
2023-05-23T16:55:14.751Z,24.20
2023-05-23T16:57:44.511Z,24.20
2023-05-23T17:00:14.778Z,24.20
2023-05-23T17:02:42.112Z,24.20
2023-05-23T17:05:12.084Z,24.20
2023-05-23T17:07:39.372Z,24.20
2023-05-23T17:10:07.352Z,24.20
2023-05-23T17:12:34.673Z,24.20
2023-05-23T17:15:01.958Z,24.20
2023-05-23T17:17:29.305Z,24.10
2023-05-23T17:19:58.692Z,24.10
2023-05-23T17:22:28.287Z,24.10
2023-05-23T17:24:59.860Z,24.10
2023-05-23T17:27:29.610Z,24.10
2023-05-23T17:29:58.052Z,24.10
2023-05-23T17:32:26.434Z,24.10
2023-05-23T17:34:53.752Z,24.00
2023-05-23T17:37:21.186Z,24.00
2023-05-23T17:39:50.961Z,24.00
2023-05-23T17:42:18.376Z,24.00
2023-05-23T17:44:50.561Z,24.00
2023-05-23T17:47:18.499Z,24.00
2023-05-23T17:49:48.424Z,23.90
2023-05-23T17:52:15.810Z,23.90
2023-05-23T17:54:47.652Z,23.90
2023-05-23T17:57:17.427Z,23.90
2023-05-23T17:59:46.947Z,23.80
2023-05-23T18:02:14.389Z,23.80
2023-05-23T18:04:42.700Z,23.80
2023-05-23T18:07:12.900Z,23.70
2023-05-23T18:09:42.830Z,23.70
2023-05-23T18:12:11.566Z,23.70
2023-05-23T18:14:42.328Z,23.60
2023-05-23T18:17:09.896Z,23.60
2023-05-23T18:19:37.568Z,23.60
2023-05-23T18:22:07.648Z,23.50
2023-05-23T18:24:37.199Z,23.50
2023-05-23T18:27:04.848Z,23.40
2023-05-23T18:29:37.510Z,23.40
2023-05-23T18:32:07.296Z,23.40
2023-05-23T18:34:37.147Z,23.40
2023-05-23T18:37:46.220Z,23.30
2023-05-23T18:40:29.543Z,23.20
2023-05-23T18:43:04.657Z,23.20
2023-05-23T18:45:37.692Z,23.20
2023-05-23T18:48:05.345Z,23.10
2023-05-23T18:50:33.848Z,23.10
2023-05-23T18:53:01.455Z,23.10
2023-05-23T18:55:34.776Z,23.10
2023-05-23T18:58:15.117Z,23.00
2023-05-23T19:00:48.281Z,23.00
2023-05-23T19:03:18.251Z,23.00
2023-05-23T19:05:48.638Z,23.00
2023-05-23T19:08:33.564Z,22.90
2023-05-23T19:11:08.359Z,22.90
2023-05-23T19:13:55.814Z,22.90
2023-05-23T19:16:24.133Z,22.80
2023-05-23T19:18:51.705Z,22.90
2023-05-23T19:21:19.147Z,22.80
2023-05-23T19:23:49.055Z,22.80
2023-05-23T19:26:18.361Z,22.80
2023-05-23T19:28:46.735Z,22.80
2023-05-23T19:31:16.643Z,22.70
2023-05-23T19:33:44.258Z,22.70
2023-05-23T19:36:12.180Z,22.70
2023-05-23T19:38:41.865Z,22.70
2023-05-23T19:41:12.255Z,22.70
2023-05-23T19:43:42.068Z,22.70
2023-05-23T19:46:09.583Z,22.60
2023-05-23T19:48:39.386Z,22.70
2023-05-23T19:51:07.101Z,22.70
2023-05-23T19:53:35.398Z,22.70
2023-05-23T19:56:12.318Z,22.70
2023-05-23T19:58:47.149Z,22.60
2023-05-23T20:01:32.233Z,22.60
2023-05-23T20:04:08.827Z,22.60
2023-05-23T20:09:33.363Z,22.60
2023-05-23T20:12:07.714Z,22.60
2023-05-23T20:14:35.353Z,22.50
2023-05-23T20:17:05.257Z,22.50
2023-05-23T20:19:32.774Z,22.50
2023-05-23T20:22:00.260Z,22.50
2023-05-23T20:24:31.962Z,22.50
2023-05-23T20:27:01.464Z,22.50
2023-05-23T20:29:32.501Z,22.50
2023-05-23T20:32:02.452Z,22.50
2023-05-23T20:34:29.804Z,22.50
2023-05-23T20:36:57.525Z,22.60
2023-05-23T20:39:24.788Z,22.60
2023-05-23T20:41:54.828Z,22.60
2023-05-23T20:44:24.663Z,22.60
2023-05-23T20:46:57.114Z,22.60
2023-05-23T20:49:32.766Z,22.60
2023-05-23T20:52:17.854Z,22.60
2023-05-23T20:54:52.263Z,22.60
2023-05-23T20:57:41.054Z,22.60
2023-05-23T21:00:18.018Z,22.60
2023-05-23T21:02:59.788Z,22.60
2023-05-23T21:05:27.476Z,22.60
2023-05-23T21:08:03.465Z,22.60
2023-05-23T21:10:46.440Z,22.60
2023-05-23T21:13:25.010Z,22.60
2023-05-23T21:15:55.731Z,22.60
2023-05-23T21:18:33.731Z,22.60
2023-05-23T21:21:22.934Z,22.60
2023-05-23T21:24:04.200Z,22.60
2023-05-23T21:26:37.046Z,22.60
2023-05-23T21:29:31.486Z,22.50
2023-05-23T21:32:04.019Z,22.50
2023-05-23T21:34:44.216Z,22.50
2023-05-23T21:37:11.783Z,22.50
2023-05-23T21:39:51.213Z,22.50
2023-05-23T21:42:19.465Z,22.50
2023-05-23T21:44:49.235Z,22.50
2023-05-23T21:47:21.383Z,22.50
2023-05-23T21:49:48.939Z,22.40
2023-05-23T21:52:16.856Z,22.40
2023-05-23T21:54:49.837Z,22.40
2023-05-23T21:57:20.368Z,22.40
2023-05-23T21:59:50.463Z,22.40
2023-05-23T22:02:19.669Z,22.40
2023-05-23T22:04:47.115Z,22.40
2023-05-23T22:07:53.108Z,22.40
2023-05-23T22:10:21.050Z,22.40
2023-05-23T22:12:48.713Z,22.40
2023-05-23T22:15:16.857Z,22.30
2023-05-23T22:17:46.966Z,22.40
2023-05-23T22:20:49.813Z,22.30
2023-05-23T22:23:17.560Z,22.30
2023-05-23T22:25:48.137Z,22.30
2023-05-23T22:28:20.428Z,22.30
2023-05-23T22:30:48.679Z,22.30
2023-05-23T22:33:16.235Z,22.40
2023-05-23T22:35:43.966Z,22.30
2023-05-23T22:38:13.519Z,22.30
2023-05-23T22:40:41.180Z,22.20
2023-05-23T22:43:08.798Z,22.30
2023-05-23T22:45:44.559Z,22.20
2023-05-23T22:48:12.480Z,22.20
2023-05-23T22:50:40.852Z,22.20
2023-05-23T22:53:12.891Z,22.20
2023-05-23T22:55:40.552Z,22.20
2023-05-23T22:58:09.030Z,22.20
2023-05-23T23:00:41.061Z,22.10
2023-05-23T23:03:11.878Z,22.20
2023-05-23T23:05:42.364Z,22.20
2023-05-23T23:08:12.464Z,22.10
2023-05-23T23:10:41.531Z,22.10
2023-05-23T23:13:09.314Z,22.10
2023-05-23T23:15:37.394Z,22.10
2023-05-23T23:18:05.983Z,22.00
2023-05-23T23:20:39.036Z,22.00
2023-05-23T23:23:06.577Z,22.00
2023-05-23T23:25:33.986Z,21.90
2023-05-23T23:28:01.322Z,21.90
2023-05-23T23:30:28.786Z,21.90
2023-05-23T23:32:58.528Z,21.90
2023-05-23T23:35:26.285Z,21.90
2023-05-23T23:37:53.816Z,21.80
2023-05-23T23:40:23.194Z,21.80
2023-05-23T23:42:52.884Z,21.80
2023-05-23T23:45:22.992Z,21.80
2023-05-23T23:47:52.696Z,21.80
2023-05-23T23:50:22.377Z,21.80
2023-05-23T23:52:49.997Z,21.70
2023-05-23T23:55:19.701Z,21.70
2023-05-23T23:57:47.496Z,21.70
